Audrey — PD9331 — position and weather

sailwx.info

Track history (hours):
 
Tides and Currents Weather Stations Pressure Air Temp Water Temp Dewpoint Dewpoint Depression Visibility Wind Speed Wind Dir Waves Ship Positions

Audrey

Last reported at 2015-Apr-18 06:18 UTC. Time now 2015-Apr-21 05:02 UTC.
Position N 49°24' E 008°47'.

Length 85 m; draft 2.3 m.

Type: Other ship. MMSI: 244660106.

Date/timePositionNaut miles runAvg speedWind from/ knotsBaromVisibWave heightAir tempDewpointWater temp
2015-Apr-18 06:18N 49°24' E 008°47'11 0.7
2015-Apr-17 15:04N 49°23' E 008°30'4 8.0
2015-Apr-17 14:30N 49°19' E 008°28'8 8.1
2015-Apr-17 13:33N 49°12' E 008°23'10 9.7
2015-Apr-17 12:33N 49°03' E 008°18'10 9.6
2015-Apr-17 11:32N 48°55' E 008°09'6 5.7
2015-Apr-17 10:31N 48°49' E 008°06'8 8.2
2015-Apr-17 09:33N 48°44' E 007°58'233 5.6
2015-Apr-15 16:16N 51°51' E 004°22'3 0.1
2015-Apr-14 03:18N 51°53' E 004°26'233 5.3
2015-Apr-12 07:34N 48°41' E 007°55'5 4.9
2015-Apr-12 06:34N 48°45' E 007°58'7 6.6
2015-Apr-12 05:31N 48°50' E 008°07'0 0.0
2015-Apr-11 17:13N 48°50' E 008°07'1 1.2
2015-Apr-11 16:33N 48°51' E 008°07'4 4.2
2015-Apr-11 15:33N 48°55' E 008°09'4 3.7
2015-Apr-11 14:32N 48°58' E 008°12'4 3.9
2015-Apr-11 13:34N 48°60' E 008°17'4 4.2
2015-Apr-11 12:34N 49°04' E 008°19'4 4.2
2015-Apr-11 11:33N 49°08' E 008°22'4 4.0
2015-Apr-11 10:32N 49°12' E 008°23'4 4.0
2015-Apr-11 09:34N 49°15' E 008°25'4 3.5
2015-Apr-11 08:26N 49°19' E 008°28'3 3.6
2015-Apr-11 07:33N 49°22' E 008°30'104 2.4
2015-Apr-09 13:08N 50°49' E 007°02'3 3.7
2015-Apr-09 12:26N 50°51' E 006°59'3 3.5
2015-Apr-09 11:27N 50°54' E 007°02'4 4.0
2015-Apr-09 10:29N 50°56' E 006°58'11 3.6
2015-Apr-09 07:26N 51°07' E 006°53'3 3.4
2015-Apr-09 06:33N 51°09' E 006°50'3 2.8
2015-Apr-09 05:34N 51°11' E 006°46'3 2.6
2015-Apr-09 04:33N 51°13' E 006°45'3 2.9
2015-Apr-09 03:34N 51°16' E 006°42'3 0.3
2015-Apr-08 20:13N 51°18' E 006°44'0 0.0
2015-Apr-08 18:33N 51°18' E 006°44'4 2.8
2015-Apr-08 17:06N 51°21' E 006°39'13 3.7
2015-Apr-08 13:29N 51°35' E 006°40'17 4.0
2015-Apr-08 09:12N 51°46' E 006°20'11 5.0
2015-Apr-08 07:04N 51°51' E 006°05'  
Track history (hours):
 
Tides and Currents Weather Stations Pressure Air Temp Water Temp Dewpoint Dewpoint Depression Visibility Wind Speed Wind Dir Waves Ship Positions

Audrey

Last reported at 2015-Apr-18 06:18 UTC. Time now 2015-Apr-21 05:02 UTC.
Position N 49°24' E 008°47'.

Length 85 m; draft 2.3 m.

Type: Other ship. MMSI: 244660106.

Date/timePositionNaut miles runAvg speedWind from/ knotsBaromVisibWave heightAir tempDewpointWater temp
2015-Apr-18 06:18N 49°24' E 008°47'11 0.7
2015-Apr-17 15:04N 49°23' E 008°30'4 8.0
2015-Apr-17 14:30N 49°19' E 008°28'8 8.1
2015-Apr-17 13:33N 49°12' E 008°23'10 9.7
2015-Apr-17 12:33N 49°03' E 008°18'10 9.6
2015-Apr-17 11:32N 48°55' E 008°09'6 5.7
2015-Apr-17 10:31N 48°49' E 008°06'8 8.2
2015-Apr-17 09:33N 48°44' E 007°58'233 5.6
2015-Apr-15 16:16N 51°51' E 004°22'3 0.1
2015-Apr-14 03:18N 51°53' E 004°26'233 5.3
2015-Apr-12 07:34N 48°41' E 007°55'5 4.9
2015-Apr-12 06:34N 48°45' E 007°58'7 6.6
2015-Apr-12 05:31N 48°50' E 008°07'0 0.0
2015-Apr-11 17:13N 48°50' E 008°07'1 1.2
2015-Apr-11 16:33N 48°51' E 008°07'4 4.2
2015-Apr-11 15:33N 48°55' E 008°09'4 3.7
2015-Apr-11 14:32N 48°58' E 008°12'4 3.9
2015-Apr-11 13:34N 48°60' E 008°17'4 4.2
2015-Apr-11 12:34N 49°04' E 008°19'4 4.2
2015-Apr-11 11:33N 49°08' E 008°22'4 4.0
2015-Apr-11 10:32N 49°12' E 008°23'4 4.0
2015-Apr-11 09:34N 49°15' E 008°25'4 3.5
2015-Apr-11 08:26N 49°19' E 008°28'3 3.6
2015-Apr-11 07:33N 49°22' E 008°30'104 2.4
2015-Apr-09 13:08N 50°49' E 007°02'3 3.7
2015-Apr-09 12:26N 50°51' E 006°59'3 3.5
2015-Apr-09 11:27N 50°54' E 007°02'4 4.0
2015-Apr-09 10:29N 50°56' E 006°58'11 3.6
2015-Apr-09 07:26N 51°07' E 006°53'3 3.4
2015-Apr-09 06:33N 51°09' E 006°50'3 2.8
2015-Apr-09 05:34N 51°11' E 006°46'3 2.6
2015-Apr-09 04:33N 51°13' E 006°45'3 2.9
2015-Apr-09 03:34N 51°16' E 006°42'3 0.3
2015-Apr-08 20:13N 51°18' E 006°44'0 0.0
2015-Apr-08 18:33N 51°18' E 006°44'4 2.8
2015-Apr-08 17:06N 51°21' E 006°39'13 3.7
2015-Apr-08 13:29N 51°35' E 006°40'17 4.0
2015-Apr-08 09:12N 51°46' E 006°20'11 5.0
2015-Apr-08 07:04N 51°51' E 006°05'  

Dump ship's entire track history